• Join FlightAware (Why Join?)
  • Login
  • US Flag 
10:34PM EST


 

Airport Tracker/Info


-or-


 

Live Flight TrackerFlight Track Log ✈ N829BW ✈ 26-Feb-2014 ✈ KEWB - KIJD

Flight Track Log - Related Links

Times and Time Zones

All times are in EST time to prevent confusion due to time zone crossing. See the N829BW flight status page for this flight to view local times or setup timezone preferences in your user account.

Time Position Orientation Groundspeed Altitude Reporting Facility
EST Latitude Longitude Course Direction KTS MPH feet Rate Location/Type
01:34PM 41.6644 -70.9728 283° West 79 91 800  Level Boston Center
01:35PM 41.6675 -70.9911 283° West 62 71 1,300 826 Climbing Boston Center
01:36PM 41.6731 -71.0161 287° West 64 74 2,300 971 Climbing Boston Center
01:36PM 41.6747 -71.0186 312° West 66 76 2,400 885 Climbing Boston Center
01:37PM 41.6775 -71.0378 281° West 65 75 3,200 984 Climbing Boston Center
01:37PM 41.6800 -71.0417 311° West 67 77 3,400 492 Climbing Boston Center
01:38PM 41.6856 -71.0608 291° West 71 82 3,700 197 Climbing Boston Center
01:38PM 41.6894 -71.0658 316° Northwest 72 83 3,600 -800 Descending Boston Center
01:39PM 41.6989 -71.0917 296° West 89 102 2,900 -677 Descending Boston Center
01:39PM 41.7022 -71.0950 323° Northwest 83 96 2,900 98 Level Boston Center
01:40PM 41.7092 -71.1156 294° West 71 82 3,000 98 Climbing Boston Center
01:40PM 41.7119 -71.1189 318° Northwest 75 86 3,000  Level Boston Center
01:41PM 41.7242 -71.1381 311° West 83 96 3,000 98 Level Boston Center
01:41PM 41.7275 -71.1419 319° Northwest 82 94 3,100 -364 Climbing Boston Center
01:42PM 41.7353 -71.1681 292° West 79 91 2,600 -492 Descending Boston Center
01:42PM 41.7375 -71.1686 349° North 80 92 2,600  Level Boston Center
01:43PM 41.7436 -71.1914 290° West 76 87 2,600  Level Boston Center
01:43PM 41.7458 -71.1975 296° West 77 89 2,600  Level Boston Center
01:44PM 41.7542 -71.2239 293° West 85 98 2,600  Level Boston Center
01:44PM 41.7564 -71.2264 320° Northwest 85 98 2,600 -179 Level Boston Center
01:45PM 41.7544 -71.2608 266° West 92 106 2,400 -182 Descending Boston Center
01:45PM 41.7525 -71.2636 227° Southwest 97 112 2,400 197 Level Boston Center
01:46PM 41.7489 -71.2931 261° West 84 97 2,600 197 Climbing Boston Center
01:46PM 41.7500 -71.2975 289° West 89 102 2,600 -97 Level Boston Center
01:47PM 41.7575 -71.3297 287° West 101 116 2,500 -52 Descending Boston Center
01:48PM 41.7622 -71.3653 280° West 93 107 2,500  Level Boston Center
01:48PM 41.7639 -71.3644 20° North 95 109 2,500 98 Level Boston Center
01:49PM 41.7536 -71.3967 247° West 85 98 2,600 98 Climbing Boston Center
01:49PM 41.7539 -71.3956 71° East 89 102 2,600 -94 Level Boston Center
01:50PM 41.7467 -71.4308 255° West 92 106 2,500 -94 Descending Boston Center
01:50PM 41.7464 -71.4317 246° West 97 112 2,500  Level Boston Center
01:51PM 41.7403 -71.4611 254° West 92 106 2,500  Level Boston Center
01:51PM 41.7419 -71.4658 295° West 96 110 2,500  Level Boston Center
01:52PM 41.7403 -71.4931 265° West 86 99 2,500  Level Boston Center
01:52PM 41.7408 -71.4972 280° West 87 100 2,500 98 Level Boston Center
01:53PM 41.7358 -71.5258 257° West 94 108 2,600 98 Climbing Boston Center
01:53PM 41.7353 -71.5333 264° West 91 105 2,600 -100 Level Boston Center
01:54PM 41.7231 -71.5558 234° Southwest 90 104 2,500 -197 Descending Boston Center
01:54PM 41.7194 -71.5597 219° Southwest 89 102 2,400 90 Descending Boston Center
01:55PM 41.7014 -71.5767 215° Southwest 84 97 2,600 194 Climbing Boston Center
01:55PM 41.7000 -71.5794 236° Southwest 87 100 2,600 -176 Level Boston Center
01:56PM 41.6922 -71.6111 252° West 94 108 2,400 -91 Descending Boston Center
01:56PM 41.6917 -71.6136 253° West 92 106 2,500  Climbing Boston Center
01:57PM 41.6956 -71.6467 279° West 97 112 2,400 -107 Descending Boston Center
01:57PM 41.6961 -71.6456 56° Northeast 94 108 2,400  Level Boston Center
01:58PM 41.7067 -71.6769 294° West 87 100 2,400  Level Boston Center
01:58PM 41.7078 -71.6756 43° Northeast 89 102 2,400 98 Level Boston Center
01:59PM 41.7197 -71.7078 296° West 103 119 2,500 98 Climbing Boston Center
01:59PM 41.7214 -71.7086 340° North 98 113 2,500  Level Boston Center
02:00PM 41.7203 -71.7367 267° West 85 98 2,500  Level Boston Center
02:00PM 41.7219 -71.7408 298° West 85 98 2,500 98 Level Boston Center
02:01PM 41.7222 -71.7692 271° West 90 104 2,600  Climbing Boston Center
02:01PM 41.7242 -71.7744 296° West 90 104 2,500 -197 Descending Boston Center
02:02PM 41.7261 -71.8022 275° West 90 104 2,400 -97 Descending Boston Center
02:02PM 41.7261 -71.8078 270° West 91 105 2,400 167 Level Boston Center
02:03PM 41.7283 -71.8442 275° West 92 106 2,600 58 Climbing Boston Center
02:04PM 41.7294 -71.8700 273° West 102 117 2,500 -98 Descending Boston Center
02:04PM 41.7297 -71.8808 272° West 98 113 2,500  Level Boston Center
02:05PM 41.7272 -71.9008 260° West 88 101 2,500  Level Boston Center
02:05PM 41.7272 -71.9111 270° West 86 99 2,500  Level Boston Center
02:06PM 41.7331 -71.9350 288° West 87 100 2,500  Level Boston Center
02:06PM 41.7375 -71.9447 301° West 89 102 2,500 74 Level Boston Center
02:07PM 41.7469 -71.9678 299° West 84 97 2,600 97 Climbing Boston Center
02:09PM 41.7464 -72.0119 270° West  Level Estimated
02:16PM 41.7333 -72.1667 270° West  Level FlightAware Approximate
02:17PM 41.7440 -72.1802 270° West  Level Estimated